createdAt,value
2019-05-02T00:01:30.769Z,24.93
2019-05-02T00:06:38.158Z,23.97
2019-05-02T00:11:43.652Z,29.17
2019-05-02T00:16:49.330Z,29.93
2019-05-02T00:21:55.811Z,24.93
2019-05-02T00:27:02.875Z,25.53
2019-05-02T00:32:08.057Z,22.67
2019-05-02T00:37:13.225Z,20.33
2019-05-02T00:42:22.556Z,18.93
2019-05-02T00:47:26.560Z,19.47
2019-05-02T00:52:32.906Z,19.23
2019-05-02T00:57:38.849Z,17.77
2019-05-02T01:02:45.596Z,17.47
2019-05-02T01:07:51.474Z,16.73
2019-05-02T01:13:19.207Z,17.70
2019-05-02T01:18:24.505Z,16.23
2019-05-02T01:23:29.814Z,16.70
2019-05-02T01:28:36.622Z,16.33
2019-05-02T01:39:28.073Z,15.30
2019-05-02T01:44:36.317Z,12.03
2019-05-02T01:49:40.211Z,9.97
2019-05-02T01:54:47.368Z,9.27
2019-05-02T01:59:52.671Z,8.77
2019-05-02T02:04:58.075Z,8.20
2019-05-02T02:10:03.628Z,8.30
2019-05-02T02:15:09.333Z,8.37
2019-05-02T02:20:16.366Z,8.50
2019-05-02T02:25:26.712Z,8.30
2019-05-02T02:30:32.083Z,8.97
2019-05-02T02:35:56.508Z,9.60
2019-05-02T02:41:06.488Z,8.57
2019-05-02T02:46:10.387Z,9.27
2019-05-02T02:51:23.609Z,9.10
2019-05-02T02:56:22.347Z,9.43
2019-05-02T03:01:29.315Z,9.20
2019-05-02T03:06:38.460Z,9.93
2019-05-02T03:11:45.488Z,10.43
2019-05-02T03:16:50.708Z,9.90
2019-05-02T03:22:01.066Z,10.63
2019-05-02T03:27:02.576Z,10.53
2019-05-02T03:32:30.135Z,10.47
2019-05-02T03:37:14.993Z,10.30
2019-05-02T03:42:20.186Z,11.43
2019-05-02T03:47:26.074Z,11.07
2019-05-02T03:52:36.507Z,11.27
2019-05-02T03:57:41.942Z,11.70
2019-05-02T04:02:46.039Z,11.47
2019-05-02T04:07:51.737Z,12.37
2019-05-02T04:12:58.804Z,10.57
2019-05-02T04:18:08.359Z,12.70
2019-05-02T04:23:14.036Z,12.70
2019-05-02T04:28:20.321Z,11.23
2019-05-02T04:33:29.208Z,12.07
2019-05-02T04:38:44.505Z,12.60
2019-05-02T04:43:43.071Z,12.63
2019-05-02T04:48:49.772Z,13.83
2019-05-02T04:53:53.027Z,12.17
2019-05-02T04:59:21.916Z,13.20
2019-05-02T05:04:24.156Z,13.77
2019-05-02T05:09:29.400Z,12.70
2019-05-02T05:14:53.613Z,12.40
2019-05-02T05:20:00.212Z,13.07
2019-05-02T05:30:30.108Z,12.90
2019-05-02T05:35:35.243Z,13.07
2019-05-02T05:40:40.423Z,12.27
2019-05-02T05:45:53.408Z,12.87
2019-05-02T05:50:52.878Z,12.03
2019-05-02T05:56:00.998Z,11.57
2019-05-02T06:01:09.381Z,12.77
2019-05-02T06:06:14.891Z,13.03
2019-05-02T06:11:20.127Z,12.63
2019-05-02T06:16:25.534Z,13.00
2019-05-02T06:21:31.166Z,12.13
2019-05-02T06:26:36.886Z,13.67
2019-05-02T06:31:43.096Z,13.40
2019-05-02T06:36:49.222Z,13.20
2019-05-02T06:41:57.474Z,11.80
2019-05-02T06:47:04.180Z,11.27
2019-05-02T06:52:08.566Z,11.60
2019-05-02T06:57:14.166Z,12.87
2019-05-02T07:02:19.527Z,12.30
2019-05-02T07:07:31.281Z,13.10
2019-05-02T07:12:31.805Z,8.03
2019-05-02T07:17:44.924Z,6.90
2019-05-02T07:23:10.535Z,7.37
2019-05-02T07:28:27.966Z,7.40
2019-05-02T07:33:37.545Z,7.47
2019-05-02T07:38:40.565Z,7.83
2019-05-02T07:43:46.325Z,7.80
2019-05-02T07:48:54.487Z,8.17
2019-05-02T07:53:59.798Z,8.57
2019-05-02T07:59:05.005Z,10.67
2019-05-02T08:04:12.849Z,11.50
2019-05-02T08:09:17.765Z,10.00
2019-05-02T08:14:23.327Z,10.13
2019-05-02T08:19:28.447Z,10.43
2019-05-02T08:24:37.832Z,9.07
2019-05-02T08:29:40.525Z,6.47
2019-05-02T08:34:51.311Z,6.30
2019-05-02T08:39:53.525Z,6.37
2019-05-02T08:45:00.904Z,6.67
2019-05-02T08:50:07.902Z,7.43
2019-05-02T08:55:13.543Z,6.83
2019-05-02T09:00:19.168Z,7.40
2019-05-02T09:05:24.815Z,7.53
2019-05-02T09:10:30.517Z,7.77
2019-05-02T09:15:40.447Z,7.07
2019-05-02T09:20:46.917Z,8.67
2019-05-02T09:26:09.608Z,7.30
2019-05-02T09:31:16.447Z,8.17
2019-05-02T09:36:22.750Z,6.33
2019-05-02T09:41:32.518Z,7.93
2019-05-02T09:46:35.608Z,7.97
2019-05-02T09:51:42.025Z,7.17
2019-05-02T09:56:47.806Z,7.90
2019-05-02T10:01:53.011Z,7.00
2019-05-02T10:06:58.647Z,7.20
2019-05-02T10:12:04.611Z,7.50
2019-05-02T10:17:10.196Z,7.70
2019-05-02T10:22:16.247Z,8.00
2019-05-02T10:27:21.754Z,7.47
2019-05-02T10:32:27.326Z,6.70
2019-05-02T10:37:38.401Z,7.80
2019-05-02T10:42:41.855Z,8.37
2019-05-02T10:47:46.728Z,7.60
2019-05-02T10:52:52.672Z,8.73
2019-05-02T10:57:58.510Z,8.73
2019-05-02T11:03:15.342Z,8.73
2019-05-02T11:08:22.445Z,8.00
2019-05-02T11:13:45.606Z,8.33
2019-05-02T11:18:58.405Z,8.60
2019-05-02T11:24:03.811Z,8.83
2019-05-02T11:29:09.209Z,9.73
2019-05-02T11:34:14.565Z,9.57
2019-05-02T11:39:27.440Z,9.27
2019-05-02T11:44:27.165Z,8.37
2019-05-02T11:49:32.591Z,8.23
2019-05-02T11:54:39.259Z,9.63
2019-05-02T11:59:44.750Z,8.57
2019-05-02T12:04:52.603Z,9.30
2019-05-02T12:09:57.307Z,10.23
2019-05-02T12:15:02.616Z,9.90
2019-05-02T12:20:08.371Z,9.80
2019-05-02T12:25:13.951Z,9.70
2019-05-02T12:30:18.923Z,10.10
2019-05-02T12:35:24.391Z,10.80
2019-05-02T12:40:29.832Z,9.70
2019-05-02T12:45:35.033Z,10.50
2019-05-02T12:50:41.662Z,10.03
2019-05-02T12:55:46.861Z,9.93
2019-05-02T13:00:53.028Z,9.83
2019-05-02T13:05:58.811Z,11.63
2019-05-02T13:11:06.921Z,10.13
2019-05-02T13:16:12.530Z,10.93
2019-05-02T13:21:20.904Z,10.57
2019-05-02T13:26:27.261Z,10.83
2019-05-02T13:31:49.753Z,11.60
2019-05-02T13:36:57.844Z,11.17
2019-05-02T13:42:02.581Z,11.70
2019-05-02T13:47:09.380Z,11.97
2019-05-02T13:52:14.629Z,11.60
2019-05-02T13:57:21.689Z,10.80
2019-05-02T14:02:38.341Z,10.60
2019-05-02T14:08:01.851Z,10.70
2019-05-02T14:13:07.341Z,11.07
2019-05-02T14:18:12.731Z,12.23
2019-05-02T14:23:17.690Z,12.40
2019-05-02T14:28:26.862Z,11.30
2019-05-02T14:33:32.895Z,10.83
2019-05-02T14:38:37.683Z,10.10
2019-05-02T14:43:53.891Z,11.07
2019-05-02T14:48:59.822Z,10.27
2019-05-02T14:54:08.385Z,10.43
2019-05-02T14:59:19.423Z,11.50
2019-05-02T15:04:22.673Z,10.80
2019-05-02T15:09:27.772Z,11.57
2019-05-02T15:14:34.874Z,11.33
2019-05-02T15:19:39.862Z,11.03
2019-05-02T15:24:45.110Z,10.87
2019-05-02T15:29:53.881Z,11.60
2019-05-02T15:35:17.739Z,12.47
2019-05-02T15:45:27.856Z,12.23
2019-05-02T15:50:33.101Z,11.47
2019-05-02T15:55:42.137Z,12.50
2019-05-02T16:00:47.690Z,11.50
2019-05-02T16:05:52.897Z,11.37
2019-05-02T16:10:58.330Z,11.50
2019-05-02T16:16:05.465Z,11.47
2019-05-02T16:21:13.164Z,11.83
2019-05-02T16:26:18.681Z,13.30
2019-05-02T16:31:25.387Z,14.40
2019-05-02T16:36:36.280Z,12.87
2019-05-02T16:41:41.287Z,13.03
2019-05-02T16:46:44.495Z,13.13
2019-05-02T16:51:50.278Z,13.57
2019-05-02T16:56:55.517Z,13.67
2019-05-02T17:02:07.691Z,14.03
2019-05-02T17:07:08.924Z,13.97
2019-05-02T17:12:15.351Z,13.50
2019-05-02T17:17:22.191Z,14.27
2019-05-02T17:22:27.554Z,14.07
2019-05-02T17:27:32.593Z,14.73
2019-05-02T17:32:37.809Z,14.90
2019-05-02T17:37:48.737Z,13.83
2019-05-02T17:43:07.655Z,15.63
2019-05-02T17:48:16.096Z,14.93
2019-05-02T17:53:41.085Z,14.10
2019-05-02T17:58:53.338Z,14.50
2019-05-02T18:03:52.656Z,15.37
2019-05-02T18:08:57.662Z,15.40
2019-05-02T18:14:05.403Z,14.37
2019-05-02T18:19:09.254Z,14.93
2019-05-02T18:24:14.827Z,14.93
2019-05-02T18:29:20.426Z,13.77
2019-05-02T18:34:25.626Z,14.93
2019-05-02T18:39:34.842Z,15.37
2019-05-02T18:44:38.025Z,14.70
2019-05-02T18:49:44.936Z,15.13
2019-05-02T18:54:51.776Z,16.50
2019-05-02T18:59:58.208Z,15.70
2019-05-02T19:05:06.033Z,14.20
2019-05-02T19:10:12.062Z,14.83
2019-05-02T19:15:17.534Z,13.93
2019-05-02T19:20:28.733Z,13.87
2019-05-02T19:25:34.093Z,13.43
2019-05-02T19:30:42.399Z,15.13
2019-05-02T19:35:50.090Z,14.40
2019-05-02T19:40:58.167Z,18.05
2019-05-02T19:46:02.237Z,16.40
2019-05-02T19:51:12.704Z,15.93
2019-05-02T19:56:14.434Z,16.20
2019-05-02T20:01:22.907Z,18.23
2019-05-02T20:06:26.474Z,15.80
2019-05-02T20:11:32.853Z,16.80
2019-05-02T20:16:45.838Z,15.53
2019-05-02T20:21:57.291Z,17.13
2019-05-02T20:27:02.915Z,21.33
2019-05-02T20:32:08.374Z,21.50
2019-05-02T20:37:13.985Z,21.60
2019-05-02T20:42:19.425Z,21.23
2019-05-02T20:47:26.156Z,21.60
2019-05-02T20:52:32.383Z,21.60
2019-05-02T20:57:57.133Z,22.67
2019-05-02T21:03:02.812Z,19.47
2019-05-02T21:08:09.712Z,19.70
2019-05-02T21:13:15.278Z,18.10
2019-05-02T21:18:22.077Z,17.17
2019-05-02T21:23:27.419Z,17.30
2019-05-02T21:28:52.242Z,18.60
2019-05-02T21:33:57.407Z,18.93
2019-05-02T21:39:02.879Z,18.97
2019-05-02T21:44:08.178Z,17.87
2019-05-02T21:49:15.218Z,18.70
2019-05-02T21:54:41.612Z,19.73
2019-05-02T21:59:46.757Z,18.83
2019-05-02T22:04:52.881Z,18.43
2019-05-02T22:09:58.883Z,19.97
2019-05-02T22:15:05.654Z,18.50
2019-05-02T22:20:12.323Z,18.60
2019-05-02T22:25:17.921Z,19.37
2019-05-02T22:30:23.670Z,17.63
2019-05-02T22:35:29.333Z,19.70
2019-05-02T22:40:34.705Z,19.50
2019-05-02T22:45:41.691Z,20.53
2019-05-02T22:50:47.403Z,20.33
2019-05-02T22:56:13.446Z,11.77
2019-05-02T23:01:18.969Z,5.63
2019-05-02T23:06:44.236Z,4.37
2019-05-02T23:11:51.696Z,3.53
2019-05-02T23:16:56.638Z,2.93
2019-05-02T23:22:02.134Z,3.10
2019-05-02T23:27:13.390Z,3.07
2019-05-02T23:32:18.632Z,4.00
2019-05-02T23:37:36.321Z,3.50
2019-05-02T23:42:53.358Z,3.40
2019-05-02T23:47:58.623Z,3.73
2019-05-02T23:53:03.778Z,3.73
2019-05-02T23:58:08.934Z,3.50
